Aeroporto :
LOGIN :

Iscrizione | Disclaimer

   EN    FR    IT 

 










Sommario :    VFR   VFR Marginale   IFR   IFR Intensivo   IFR Molto Intensivo
Visibilità : 
Base nubi : 
>= 8 km
>= 3000ft
5 / 8 km
1000 / 3000 ft
1500m / 5 km
500 / 1000 ft
800 / 1500m
200 / 500 ft
< 800m
< 200 ft
Simboli :   Temporali  Nebbia  Neve Forte  Precipitazioni Forti  Vento > 20 kt
SIGMETs :   Varie  Temporali  Ghiacco  Turbolenza  Onda orograficha  Ceneri Vulcaniche






- Altitudine del aeroporto : 1161 ft
- Codice IATA : RJL


LELO - Logroño-Agoncillo

ULTIMO METAR :
  • 211300Z VRB02KT 9999 FEW035 16/03 Q1018

METARs OBSOLETI :
  • 211230Z VRB02KT 9999 FEW035 15/04 Q1018
  • 211200Z 29004KT 240V340 9999 FEW035 14/06 Q1019
  • 211130Z 27006KT 230V300 9999 FEW035 14/07 Q1019
  • 211100Z 27006KT 230V310 9999 FEW035 13/07 Q1019
  • 211030Z 26008KT 230V290 9999 FEW035 12/07 Q1019

TAF TAF LELO
Valido dal 21 a 12 ore il 21 a 21 ore UTC


211100Z 2112/2121 VRB05KT CAVOK
PROB40
TEMPO 2113/2120 FEW040TCU
PROB30
TEMPO 2112/2118 11010KT



MetMap, La meteo Aeronautica in un colpo d'occhio ! - Copyright ORBIFLY Dicembre 2007 - Disclaimer

ORBIFLY MET'MAP TEAM :

Programmazione e sviluppo : Alexandra Zaïnal
Concezione e sviluppo : Baudouin d'Aumeries
Co-Programmazione e sviluppo : Marc-Olivier Méhu
Supporto tecnico e logistico : Manuel Goepfert
Aiuto per la traduzione : Arnaldo La Scala

Contatto : metmap@orbifly.com




FONTI E CREDITI :

   NOAA